Time;durP1;ratioP1;P1;durP2;ratioP2;P2;SDS_P1;SDS_P2;PMS_P1;PMS_P2;Temp;Humidity;BMP_temperature;BMP_pressure;BME280_temperature;BME280_humidity;BME280_pressure;Samples;Min_cycle;Max_cycle;Signal;HPM_P1;HPM_P2
2022/02/04 00:08:09;;;;;;;11.93;9.15;;;;;;;8.07;80.98;100176.38;5067094;28;20044;-73
2022/02/04 00:21:51;;;;;;;13.82;9.52;;;;;;;7.98;81.68;100171.97;5072176;28;20508;-74
2022/02/04 00:24:18;;;;;;;13.35;9.85;;;;;;;8.01;81.67;100171.09;5071476;28;20041;-74
2022/02/04 00:26:50;;;;;;;13.07;9.43;;;;;;;8.02;81.77;100167.63;5057495;28;20037;-73
2022/02/04 00:31:47;;;;;;;12.15;9.45;;;;;;;7.88;81.60;100164.97;5074402;28;20029;-73
2022/02/04 00:34:16;;;;;;;11.97;9.10;;;;;;;7.88;82.07;100162.34;5074080;28;20040;-73
2022/02/04 00:39:19;;;;;;;11.18;8.93;;;;;;;7.83;81.90;100156.22;5074727;28;20029;-73
2022/02/04 00:41:45;;;;;;;13.00;9.50;;;;;;;7.80;82.09;100159.72;5074308;28;20109;-73
2022/02/04 00:44:19;;;;;;;15.95;9.43;;;;;;;7.85;82.29;100157.97;5073494;28;20119;-73
2022/02/04 00:49:24;;;;;;;10.93;8.18;;;;;;;7.76;82.33;100165.88;5070430;28;20322;-73
2022/02/04 00:55:18;;;;;;;11.50;8.15;;;;;;;7.80;82.08;100157.09;5037710;28;20041;-73
2022/02/04 00:57:55;;;;;;;11.07;8.70;;;;;;;7.76;82.25;100158.00;5041053;28;20145;-73
2022/02/04 01:13:15;;;;;;;12.40;9.27;;;;;;;7.76;82.51;100163.25;5071636;28;20037;-73
2022/02/04 01:27:55;;;;;;;12.15;8.80;;;;;;;7.60;83.67;100169.41;5070512;28;20120;-73
2022/02/04 01:30:26;;;;;;;12.57;10.13;;;;;;;7.52;83.96;100173.75;5073335;28;20511;-73
2022/02/04 01:32:52;;;;;;;12.70;8.82;;;;;;;7.50;84.09;100178.13;5073280;28;20037;-73
2022/02/04 01:35:17;;;;;;;11.77;8.77;;;;;;;7.49;83.69;100181.63;5072955;28;20139;-73
2022/02/04 01:37:42;;;;;;;12.70;8.77;;;;;;;7.43;84.24;100178.13;5073166;28;20459;-73
2022/02/04 01:40:08;;;;;;;13.02;9.57;;;;;;;7.40;84.86;100178.13;5060782;28;20478;-73
2022/02/04 01:42:33;;;;;;;12.55;9.75;;;;;;;7.38;84.88;100171.09;5072436;28;20024;-74
2022/02/04 01:44:59;;;;;;;11.63;8.27;;;;;;;7.41;84.54;100174.63;5072774;28;20086;-74
2022/02/04 01:47:24;;;;;;;12.25;9.35;;;;;;;7.35;84.42;100181.63;5072859;28;20040;-74
2022/02/04 01:49:49;;;;;;;13.05;10.15;;;;;;;7.36;84.62;100186.88;5072902;28;20040;-74
2022/02/04 01:52:15;;;;;;;13.32;10.75;;;;;;;7.33;84.77;100178.09;5072904;28;20036;-73
2022/02/04 01:54:40;;;;;;;13.15;9.70;;;;;;;7.31;84.76;100186.00;5072512;28;20040;-74
2022/02/04 01:57:06;;;;;;;13.80;9.75;;;;;;;7.27;85.72;100178.97;5072431;28;20047;-74
2022/02/04 01:59:31;;;;;;;14.27;10.68;;;;;;;7.24;85.92;100186.84;5072276;28;20033;-73
2022/02/04 02:01:56;;;;;;;14.13;10.68;;;;;;;7.28;85.72;100182.47;5054704;28;20044;-74
2022/02/04 02:04:22;;;;;;;15.10;10.90;;;;;;;7.29;85.58;100179.00;5054379;28;20036;-74
2022/02/04 02:07:01;;;;;;;15.27;11.55;;;;;;;7.27;86.05;100178.09;5087494;28;20540;-74
2022/02/04 02:09:43;;;;;;;14.73;11.07;;;;;;;7.30;85.39;100175.47;5037325;28;20036;-73
2022/02/04 02:12:10;;;;;;;13.85;10.30;;;;;;;7.31;85.65;100179.84;5070365;28;20496;-73
2022/02/04 02:14:37;;;;;;;15.23;11.45;;;;;;;7.30;85.71;100176.34;5072208;28;20377;-73
2022/02/04 02:33:09;;;;;;;14.18;10.73;;;;;;;7.35;85.85;100174.59;5068683;28;20025;-74
2022/02/04 02:33:56;;;;;;;16.27;11.82;;;;;;;7.37;85.34;100180.75;5069640;28;20101;-74
2022/02/04 02:44:33;;;;;;;16.02;11.95;;;;;;;7.36;85.59;100175.47;5069659;28;20072;-74
2022/02/04 02:47:20;;;;;;;16.42;12.90;;;;;;;7.32;85.29;100179.84;5069572;28;20036;-73
2022/02/04 02:50:09;;;;;;;16.42;11.57;;;;;;;7.28;85.98;100185.97;5069658;28;20048;-74
2022/02/04 02:55:19;;;;;;;15.07;11.02;;;;;;;7.28;85.70;100187.72;5071325;28;20136;-74
2022/02/04 03:03:11;;;;;;;16.05;11.63;;;;;;;7.30;85.70;100188.59;5068852;28;20462;-74
2022/02/04 03:05:36;;;;;;;16.50;12.40;;;;;;;7.27;85.40;100192.09;5052818;28;20039;-74
2022/02/04 03:08:03;;;;;;;15.52;12.15;;;;;;;7.27;85.42;100192.09;5071323;28;20036;-74
2022/02/04 03:10:29;;;;;;;17.85;12.95;;;;;;;7.23;86.01;100199.09;5064043;28;20043;-73
2022/02/04 03:12:54;;;;;;;17.58;12.82;;;;;;;7.22;85.63;100193.84;5035114;28;20028;-73
2022/02/04 03:15:20;;;;;;;14.23;11.52;;;;;;;7.20;85.92;100192.94;5071086;28;20076;-73
2022/02/04 03:17:50;;;;;;;18.60;13.45;;;;;;;7.14;85.87;100195.56;5071274;28;20509;-74
2022/02/04 03:20:17;;;;;;;16.65;12.77;;;;;;;7.13;85.58;100199.09;5047905;28;20492;-73
2022/02/04 03:22:42;;;;;;;18.17;12.73;;;;;;;7.11;85.78;100190.31;5071314;28;20480;-73
2022/02/04 03:25:11;;;;;;;15.32;11.05;;;;;;;7.15;85.84;100202.56;5071049;28;20035;-73
2022/02/04 03:27:46;;;;;;;16.67;11.77;;;;;;;7.09;85.97;100199.94;5070812;28;20043;-73
2022/02/04 03:30:19;;;;;;;14.73;11.05;;;;;;;7.09;85.74;100202.56;5071222;28;20042;-73
2022/02/04 03:32:51;;;;;;;16.13;11.43;;;;;;;7.06;86.05;100206.03;5071090;28;20036;-73
2022/02/04 03:35:20;;;;;;;15.90;11.77;;;;;;;7.09;85.67;100197.31;5053099;28;20492;-73
2022/02/04 03:37:47;;;;;;;17.67;11.07;;;;;;;7.10;85.80;100199.06;5071068;28;20078;-73
2022/02/04 03:40:12;;;;;;;18.25;11.73;;;;;;;7.07;85.60;100194.66;5063489;28;20036;-73
2022/02/04 03:42:37;;;;;;;14.52;10.43;;;;;;;6.99;86.08;100194.66;5070818;28;20408;-73
2022/02/04 03:45:03;;;;;;;16.45;11.73;;;;;;;6.95;86.19;100207.78;5070743;28;20044;-72
2022/02/04 03:47:28;;;;;;;15.32;10.40;;;;;;;6.97;86.20;100196.41;5070875;28;20047;-73
2022/02/04 03:49:54;;;;;;;15.80;10.82;;;;;;;6.97;86.01;100192.91;5072950;28;20029;-73
2022/02/04 03:52:19;;;;;;;16.95;10.82;;;;;;;6.98;85.67;100190.28;5075123;28;20040;-72
2022/02/04 03:54:44;;;;;;;17.52;11.90;;;;;;;7.02;85.73;100197.31;5074257;28;20056;-73
2022/02/04 03:57:09;;;;;;;13.85;9.90;;;;;;;6.97;85.51;100191.16;5075009;28;20037;-73
2022/02/04 03:59:35;;;;;;;15.73;11.05;;;;;;;6.93;85.62;100186.75;5074762;28;20051;-73
2022/02/04 04:02:00;;;;;;;17.40;10.35;;;;;;;6.96;85.44;100189.41;5074527;28;20400;-73
2022/02/04 04:04:30;;;;;;;15.60;11.15;;;;;;;6.97;85.13;100196.41;5074355;28;20411;-73
2022/02/04 04:06:56;;;;;;;13.88;10.20;;;;;;;6.96;85.37;100197.25;5074764;28;20036;-73
2022/02/04 04:09:21;;;;;;;16.63;10.65;;;;;;;6.98;85.34;100190.28;5070946;28;20476;-73
2022/02/04 04:11:48;;;;;;;14.27;10.07;;;;;;;6.98;85.09;100197.28;5056650;28;20622;-73
2022/02/04 04:14:14;;;;;;;13.05;9.70;;;;;;;6.93;84.82;100196.38;5071528;28;20039;-73
2022/02/04 04:16:41;;;;;;;13.02;9.95;;;;;;;6.92;85.01;100195.53;5074208;28;20043;-72
2022/02/04 04:19:07;;;;;;;13.68;10.15;;;;;;;6.94;84.78;100200.75;5074569;28;20488;-73
2022/02/04 04:21:32;;;;;;;14.10;9.35;;;;;;;6.90;84.97;100202.50;5070907;28;20032;-73
2022/02/04 04:23:58;;;;;;;14.43;10.48;;;;;;;6.82;84.65;100209.47;5056084;28;20044;-73
2022/02/04 04:26:23;;;;;;;13.65;9.27;;;;;;;6.88;85.40;100206.84;5055625;28;20041;-73
2022/02/04 04:28:49;;;;;;;14.05;10.10;;;;;;;6.86;85.10;100205.97;5073198;28;20138;-73
2022/02/04 04:31:15;;;;;;;13.27;9.38;;;;;;;6.79;85.05;100202.47;5074137;28;20036;-73
2022/02/04 04:33:41;;;;;;;11.52;8.27;;;;;;;6.82;85.07;100203.34;5054365;28;20037;-73
2022/02/04 04:36:06;;;;;;;12.52;8.90;;;;;;;6.87;85.04;100205.13;5074036;28;20039;-72
2022/02/04 04:38:39;;;;;;;11.05;8.07;;;;;;;6.87;84.64;100201.63;5074117;28;20054;-74
2022/02/04 04:41:14;;;;;;;;;;;;;;;6.82;84.94;100198.97;5069732;28;20059;-73
2022/02/04 05:25:44;;;;;;;11.48;7.78;;;;;;;6.81;84.73;100197.22;5060688;28;20160;-73
2022/02/04 05:28:16;;;;;;;7.72;5.82;;;;;;;6.63;83.35;100192.78;5071545;28;20044;-73
2022/02/04 05:30:41;;;;;;;9.00;5.80;;;;;;;6.62;82.93;100193.63;5063323;28;20034;-73
2022/02/04 05:33:07;;;;;;;9.57;6.45;;;;;;;6.54;83.02;100198.84;5072675;28;20484;-73
2022/02/04 05:35:32;;;;;;;10.13;6.32;;;;;;;6.56;83.16;100191.88;5071488;28;20037;-73
2022/02/04 05:37:57;;;;;;;7.40;5.78;;;;;;;6.58;83.32;100187.50;5069775;28;20036;-73
2022/02/04 05:40:27;;;;;;;8.40;6.50;;;;;;;6.60;82.63;100184.88;5072611;28;20036;-73
2022/02/04 05:42:58;;;;;;;8.95;6.10;;;;;;;6.59;82.65;100191.88;5071893;28;20484;-73
2022/02/04 05:45:27;;;;;;;8.57;5.32;;;;;;;6.56;82.38;100188.38;5074808;28;20568;-73
2022/02/04 05:47:58;;;;;;;7.60;5.63;;;;;;;6.53;82.53;100194.47;5072789;28;20127;-73
2022/02/04 05:50:39;;;;;;;8.50;5.93;;;;;;;6.54;82.59;100196.22;5072430;28;20492;-73
2022/02/04 05:55:47;;;;;;;8.73;6.00;;;;;;;6.52;82.64;100195.38;5072107;28;20462;-73
2022/02/04 06:01:29;;;;;;;7.47;5.53;;;;;;;6.53;82.09;100202.34;5071681;28;20036;-73
2022/02/04 06:03:42;;;;;;;8.98;6.22;;;;;;;6.46;82.48;100200.56;5069108;28;20053;-73
2022/02/04 06:06:28;;;;;;;7.72;5.28;;;;;;;6.46;82.06;100200.56;5068831;28;20507;-72
2022/02/04 06:14:22;;;;;;;8.20;5.57;;;;;;;6.48;82.39;100209.31;5070403;28;20033;-73
2022/02/04 06:22:23;;;;;;;8.20;5.32;;;;;;;6.39;81.82;100208.38;5070287;28;20047;-73
2022/02/04 06:24:51;;;;;;;8.13;5.68;;;;;;;6.35;82.36;100223.22;5069331;28;20097;-73
2022/02/04 06:27:20;;;;;;;8.05;5.43;;;;;;;6.30;82.54;100203.97;5053885;28;20565;-73
2022/02/04 06:29:46;;;;;;;6.97;5.35;;;;;;;6.36;82.55;100214.47;5053345;28;20128;-73
2022/02/04 06:32:14;;;;;;;8.90;5.15;;;;;;;6.35;81.79;100223.22;5072057;28;20459;-73
2022/02/04 06:34:40;;;;;;;8.70;6.13;;;;;;;6.39;81.93;100219.72;5053879;28;20040;-73
2022/02/04 06:37:05;;;;;;;8.27;5.00;;;;;;;6.42;81.65;100219.78;5071852;28;20045;-73
2022/02/04 06:39:31;;;;;;;13.35;8.75;;;;;;;6.36;82.10;100223.22;5067872;28;20039;-73
2022/02/04 06:41:56;;;;;;;9.00;6.20;;;;;;;6.41;81.93;100219.75;5054037;28;20036;-73
2022/02/04 06:44:21;;;;;;;8.23;5.55;;;;;;;6.41;81.49;100223.25;5071284;28;20470;-73
2022/02/04 06:46:47;;;;;;;9.02;5.57;;;;;;;6.43;81.45;100216.28;5071799;28;20101;-73
2022/02/04 06:49:13;;;;;;;7.80;5.28;;;;;;;6.45;81.31;100235.50;5053870;28;20030;-72
2022/02/04 06:51:38;;;;;;;7.45;5.40;;;;;;;6.47;81.62;100223.31;5071665;28;20040;-73
2022/02/04 06:54:03;;;;;;;10.20;6.60;;;;;;;6.51;81.47;100227.66;5071182;28;20071;-73
2022/02/04 06:56:33;;;;;;;10.30;6.25;;;;;;;6.51;81.13;100235.53;5071449;28;20072;-73
2022/02/04 06:58:58;;;;;;;9.13;5.93;;;;;;;6.53;81.37;100232.94;5071255;28;20048;-73
2022/02/04 07:01:24;;;;;;;8.88;5.93;;;;;;;6.50;80.83;100232.94;5071501;28;20032;-73
2022/02/04 07:03:49;;;;;;;8.93;5.15;;;;;;;6.58;80.45;100239.09;5070414;28;20559;-73
2022/02/04 07:06:16;;;;;;;9.15;6.00;;;;;;;6.53;80.88;100232.94;5053162;28;20501;-73
2022/02/04 07:09:09;;;;;;;9.50;5.68;;;;;;;6.57;80.70;100235.56;5048671;28;20043;-73
2022/02/04 07:12:03;;;;;;;9.15;5.15;;;;;;;6.58;80.48;100234.72;5060667;28;20048;-73
2022/02/04 07:19:46;;;;;;;7.80;4.80;;;;;;;6.64;79.94;100238.25;5039584;28;20040;-73
2022/02/04 07:22:15;;;;;;;8.00;4.63;;;;;;;6.67;79.39;100230.38;5071629;28;20054;-73
2022/02/04 07:24:40;;;;;;;9.93;5.75;;;;;;;6.63;79.65;100226.88;5068556;28;20025;-73
2022/02/04 07:27:06;;;;;;;9.45;6.60;;;;;;;6.71;80.08;100240.03;5070621;28;20494;-73
2022/02/04 07:29:32;;;;;;;9.80;6.43;;;;;;;6.77;79.73;100237.44;5051632;28;20035;-73
2022/02/04 07:32:00;;;;;;;9.60;6.05;;;;;;;6.78;79.21;100240.03;5070372;28;20082;-75
2022/02/04 07:34:45;;;;;;;12.82;8.75;;;;;;;6.76;79.80;100238.31;5070776;28;20107;-76
2022/02/04 07:42:38;;;;;;;9.15;5.75;;;;;;;6.75;78.97;100234.78;5070809;28;20169;-75
2022/02/04 07:45:04;;;;;;;7.40;5.13;;;;;;;6.78;78.35;100228.66;5052484;28;20134;-76
2022/02/04 07:47:30;;;;;;;8.02;5.72;;;;;;;6.84;78.65;100228.72;5070908;28;20044;-76
2022/02/04 07:49:56;;;;;;;9.27;5.18;;;;;;;6.86;78.51;100231.34;5070881;28;20507;-76
2022/02/04 07:52:21;;;;;;;9.88;5.30;;;;;;;6.86;78.03;100236.56;5070713;28;20056;-76
2022/02/04 07:54:46;;;;;;;8.05;5.50;;;;;;;6.84;78.78;100236.59;5066674;28;20397;-74
2022/02/04 07:57:11;;;;;;;9.73;5.47;;;;;;;6.89;78.41;100242.72;5070754;28;20493;-75
2022/02/04 07:59:37;;;;;;;9.07;5.35;;;;;;;6.94;78.20;100237.47;5070577;28;20036;-76
2022/02/04 08:02:03;;;;;;;9.02;5.53;;;;;;;7.03;78.16;100234.91;5070218;28;20460;-75
2022/02/04 08:04:31;;;;;;;7.85;5.45;;;;;;;7.10;78.04;100235.78;5069873;28;20403;-75
2022/02/04 08:07:02;;;;;;;7.53;4.82;;;;;;;7.17;77.59;100242.81;5070283;28;20578;-74
2022/02/04 08:09:39;;;;;;;8.35;4.68;;;;;;;7.19;76.96;100247.19;5051267;28;20051;-76
2022/02/04 08:12:28;;;;;;;9.18;5.95;;;;;;;7.22;77.00;100241.94;5070595;28;20093;-75
2022/02/04 08:15:02;;;;;;;7.60;4.57;;;;;;;7.33;76.71;100238.47;5067158;28;20047;-75
2022/02/04 08:20:35;;;;;;;7.15;4.70;;;;;;;7.36;76.01;100238.47;5069445;28;20119;-74
2022/02/04 08:23:14;;;;;;;7.43;4.95;;;;;;;7.46;76.39;100237.63;5069583;28;20068;-75
2022/02/04 08:26:01;;;;;;;8.02;5.43;;;;;;;7.63;75.81;100229.78;5064049;28;20040;-75
2022/02/04 08:28:56;;;;;;;8.80;5.25;;;;;;;7.60;75.76;100232.44;5067220;28;20088;-76
2022/02/04 08:34:36;;;;;;;7.68;4.07;;;;;;;7.60;76.12;100228.03;5068194;28;20552;-75
2022/02/04 08:37:32;;;;;;;7.05;4.55;;;;;;;7.57;74.87;100238.56;5073571;28;20079;-75
2022/02/04 08:48:34;;;;;;;6.65;4.10;;;;;;;7.71;75.76;100238.56;5071396;28;20506;-75
2022/02/04 08:56:14;;;;;;;5.97;4.10;;;;;;;7.78;74.08;100224.56;5070421;28;20086;-76
2022/02/04 08:58:47;;;;;;;7.10;4.00;;;;;;;7.81;74.60;100223.69;5073552;28;20036;-75
2022/02/04 09:01:19;;;;;;;6.78;4.40;;;;;;;7.80;75.41;100225.41;5073752;28;20047;-75
2022/02/04 09:06:16;;;;;;;6.55;3.90;;;;;;;7.92;74.12;100229.81;5072799;28;20032;-75
2022/02/04 09:08:48;;;;;;;11.95;7.05;;;;;;;7.98;75.50;100221.03;5071264;28;20039;-76
2022/02/04 09:11:17;;;;;;;9.35;5.38;;;;;;;8.12;74.99;100221.88;5073332;28;20453;-75
2022/02/04 09:19:19;;;;;;;6.68;4.18;;;;;;;8.35;73.76;100199.06;5071469;28;20074;-75
2022/02/04 09:24:10;;;;;;;5.32;3.17;;;;;;;8.31;73.22;100209.63;5069970;28;20060;-76
2022/02/04 09:26:36;;;;;;;5.13;3.42;;;;;;;8.33;73.52;100206.09;5071660;28;20438;-76
2022/02/04 09:29:02;;;;;;;4.95;3.15;;;;;;;8.31;73.29;100197.34;5054406;28;20079;-76
2022/02/04 09:31:27;;;;;;;5.30;3.20;;;;;;;8.32;72.17;100204.34;5073829;28;20036;-76
2022/02/04 09:33:53;;;;;;;5.25;2.95;;;;;;;8.35;72.58;100198.19;5072836;28;20408;-75
2022/02/04 09:36:18;;;;;;;4.80;3.00;;;;;;;8.42;72.59;100199.97;5072883;28;20496;-76
2022/02/04 09:38:43;;;;;;;6.55;3.72;;;;;;;8.38;71.70;100208.69;5072963;28;20129;-76
2022/02/04 09:41:09;;;;;;;4.38;2.72;;;;;;;8.45;72.17;100205.22;5073069;28;20037;-76
2022/02/04 09:43:35;;;;;;;5.07;2.97;;;;;;;8.48;71.23;100207.84;5072842;28;20070;-76
2022/02/04 09:46:00;;;;;;;4.38;2.60;;;;;;;8.46;71.06;100200.81;5072336;28;20064;-76
2022/02/04 09:48:27;;;;;;;6.97;3.42;;;;;;;8.55;71.09;100200.81;5070951;28;20512;-76
2022/02/04 09:50:54;;;;;;;4.53;2.80;;;;;;;8.52;70.69;100200.81;5072679;28;20737;-76
2022/02/04 10:10:39;;;;;;;4.43;2.92;;;;;;;8.45;72.16;100178.06;5068638;28;20039;-76
2022/02/04 10:15:41;;;;;;;5.43;2.95;;;;;;;8.65;71.94;100178.84;5069615;28;20041;-75
2022/02/04 10:18:54;;;;;;;4.28;2.33;;;;;;;8.75;71.48;100182.31;5070132;28;20757;-76
2022/02/04 10:21:05;;;;;;;4.80;2.92;;;;;;;8.75;70.03;100179.66;5051127;28;20037;-76
2022/02/04 10:23:55;;;;;;;4.45;2.50;;;;;;;8.67;69.87;100181.47;5050526;28;20036;-76
2022/02/04 10:26:20;;;;;;;3.80;1.90;;;;;;;8.64;69.52;100182.34;5068794;28;20121;-76
2022/02/04 10:28:46;;;;;;;4.22;1.98;;;;;;;8.75;69.70;100182.31;5069380;28;20405;-76
2022/02/04 10:31:24;;;;;;;4.22;1.75;;;;;;;8.83;69.05;100180.53;5071913;28;20036;-76
2022/02/04 10:34:11;;;;;;;4.10;1.95;;;;;;;8.97;68.49;100180.47;5069086;28;20040;-76
2022/02/04 10:36:59;;;;;;;4.68;2.55;;;;;;;8.97;68.51;100176.06;5069065;28;20032;-76
2022/02/04 10:42:23;;;;;;;4.10;2.03;;;;;;;9.09;67.53;100161.97;5070269;28;20495;-73
2022/02/04 10:45:01;;;;;;;2.65;1.33;;;;;;;8.98;67.79;100155.88;5057933;28;20125;-74
2022/02/04 10:47:38;;;;;;;3.47;1.75;;;;;;;9.01;66.89;100153.22;5071583;28;20068;-74
2022/02/04 10:50:13;;;;;;;3.63;1.60;;;;;;;9.18;67.66;100151.38;5067762;28;20048;-73
2022/02/04 10:53:01;;;;;;;3.05;1.60;;;;;;;9.39;66.40;100146.84;5071386;28;20032;-73
2022/02/04 11:01:07;;;;;;;4.88;2.38;;;;;;;9.56;64.71;100120.34;5071200;28;20029;-73
2022/02/04 11:03:34;;;;;;;;;;;;;;;9.43;64.99;100111.69;5068965;28;20067;-73
2022/02/04 11:09:02;;;;;;;3.92;1.33;;;;;;;9.29;64.66;100132.00;5049013;28;20052;-74
2022/02/04 11:36:23;;;;;;;3.67;1.90;;;;;;;9.41;64.82;100102.94;5070009;28;20045;-75
2022/02/04 11:53:33;;;;;;;4.28;1.77;;;;;;;9.63;63.83;100074.63;5070270;28;20041;-75
2022/02/04 11:55:59;;;;;;;3.05;1.70;;;;;;;9.94;64.08;100072.56;5049130;28;20036;-75
2022/02/04 11:58:25;;;;;;;3.00;1.55;;;;;;;9.95;63.75;100066.38;5052891;28;20028;-76
2022/02/04 12:01:03;;;;;;;5.13;1.85;;;;;;;9.90;63.10;100072.59;5070481;28;20097;-78
2022/02/04 12:03:39;;;;;;;2.25;1.25;;;;;;;9.61;63.41;100066.72;5050253;28;20411;-75
2022/02/04 12:06:05;;;;;;;3.17;1.30;;;;;;;9.68;63.77;100067.56;5070078;28;20047;-75
2022/02/04 12:08:31;;;;;;;3.47;1.35;;;;;;;9.56;63.06;100055.41;5070468;28;20072;-75
2022/02/04 12:11:02;;;;;;;2.20;1.30;;;;;;;9.57;62.98;100048.34;5072513;28;20068;-75
2022/02/04 12:13:28;;;;;;;3.20;1.50;;;;;;;9.69;63.18;100050.84;5074703;28;20040;-75
2022/02/04 12:15:57;;;;;;;3.15;1.65;;;;;;;9.78;63.98;100050.78;5073974;28;20052;-75
2022/02/04 12:18:48;;;;;;;3.05;1.85;;;;;;;9.87;63.29;100048.00;5073543;28;20438;-75
2022/02/04 12:21:20;;;;;;;3.20;1.80;;;;;;;9.87;62.64;100047.16;5074476;28;20036;-76
2022/02/04 12:23:50;;;;;;;3.40;1.67;;;;;;;9.74;62.57;100045.53;5074145;28;20067;-76
2022/02/04 12:26:19;;;;;;;3.33;1.63;;;;;;;9.70;63.77;100046.47;5069801;28;20032;-75
2022/02/04 12:28:51;;;;;;;2.72;1.55;;;;;;;9.69;63.92;100039.44;5074141;28;20098;-75
2022/02/04 12:31:26;;;;;;;4.15;1.60;;;;;;;9.69;62.94;100035.03;5051229;28;20412;-76
2022/02/04 12:34:01;;;;;;;2.42;1.10;;;;;;;9.60;62.59;100021.97;5073864;28;20060;-75
2022/02/04 12:36:34;;;;;;;4.03;1.10;;;;;;;9.57;62.83;100027.28;5053008;28;20032;-75
2022/02/04 12:39:04;;;;;;;2.47;1.00;;;;;;;9.62;62.95;100021.06;5056282;28;20036;-75
2022/02/04 12:41:30;;;;;;;2.63;1.25;;;;;;;9.81;62.38;100023.50;5086156;28;20036;-75
2022/02/04 12:43:58;;;;;;;5.72;2.22;;;;;;;9.97;63.07;100014.53;5072844;28;20032;-75
2022/02/04 12:46:26;;;;;;;4.50;1.98;;;;;;;10.20;62.95;100008.09;5072268;28;20031;-75
2022/02/04 12:49:06;;;;;;;2.92;1.58;;;;;;;10.14;61.24;99998.50;5072339;28;20032;-75
2022/02/04 12:51:55;;;;;;;3.00;1.52;;;;;;;10.02;61.23;99994.25;5051714;28;20511;-75
2022/02/04 12:54:34;;;;;;;5.03;1.80;;;;;;;10.02;61.68;99988.97;5070501;28;20036;-75
2022/02/04 13:00:06;;;;;;;4.28;1.50;;;;;;;9.94;62.68;99990.84;5070836;28;20093;-75
2022/02/04 13:10:40;;;;;;;2.58;1.05;;;;;;;9.77;62.28;99975.25;5073476;28;20086;-75
2022/02/04 13:13:10;;;;;;;3.78;1.70;;;;;;;9.89;62.23;99982.13;5071429;28;20048;-75
2022/02/04 13:15:37;;;;;;;4.55;2.03;;;;;;;10.22;61.04;99972.03;5071531;28;20037;-75
2022/02/04 13:18:08;;;;;;;2.70;1.13;;;;;;;10.19;61.39;99965.03;5071636;28;20050;-75
2022/02/04 13:20:36;;;;;;;2.95;1.23;;;;;;;10.12;60.69;99959.88;5070166;28;20515;-75
2022/02/04 13:23:07;;;;;;;2.35;1.10;;;;;;;10.04;61.36;99966.09;5072075;28;20043;-75
2022/02/04 13:25:35;;;;;;;3.25;1.73;;;;;;;9.92;62.79;99954.84;5053270;28;20089;-75
2022/02/04 13:28:11;;;;;;;1.45;0.70;;;;;;;10.05;62.12;99949.38;5071235;28;20032;-75
2022/02/04 13:30:59;;;;;;;2.08;0.80;;;;;;;10.05;61.38;99949.38;5072987;28;20119;-75
2022/02/04 13:33:27;;;;;;;1.88;0.70;;;;;;;9.98;61.66;99939.84;5071591;28;20136;-75
2022/02/04 13:39:11;;;;;;;2.35;0.50;;;;;;;10.04;60.68;99949.44;5072272;28;20195;-75
2022/02/04 13:44:36;;;;;;;2.00;0.70;;;;;;;10.24;60.44;99935.94;5065756;28;20472;-74
2022/02/04 13:47:19;;;;;;;1.45;0.60;;;;;;;10.24;60.07;99930.66;5070289;28;20036;-75
2022/02/04 13:50:08;;;;;;;1.75;0.82;;;;;;;10.30;59.09;99931.50;5072981;28;20040;-75
2022/02/04 14:01:03;;;;;;;1.23;0.45;;;;;;;10.05;59.82;99917.75;5052745;28;20496;-75
2022/02/04 14:03:32;;;;;;;0.80;0.40;;;;;;;10.20;60.50;99903.50;5070770;28;20047;-75
2022/02/04 14:06:07;;;;;;;1.13;0.50;;;;;;;10.24;59.73;99896.38;5072438;28;20407;-75
2022/02/04 14:11:10;;;;;;;3.13;1.42;;;;;;;10.76;59.26;99898.22;5068915;28;20032;-75
2022/02/04 14:13:36;;;;;;;2.92;0.82;;;;;;;11.01;57.90;99889.91;5072350;28;20032;-75
2022/02/04 14:16:06;;;;;;;1.70;0.63;;;;;;;11.35;56.97;99892.78;5071863;28;20040;-75
2022/02/04 14:18:35;;;;;;;0.75;0.47;;;;;;;11.46;56.18;99885.50;5072332;28;20066;-75
2022/02/04 14:21:00;;;;;;;0.88;0.38;;;;;;;11.59;56.25;99892.28;5072393;28;20040;-75
2022/02/04 14:23:26;;;;;;;0.60;0.30;;;;;;;10.99;55.60;99883.78;5072227;28;20055;-75
2022/02/04 14:26:05;;;;;;;2.80;0.40;;;;;;;10.75;57.01;99902.66;5073870;28;20021;-73
2022/02/04 14:28:41;;;;;;;0.90;0.40;;;;;;;10.60;57.61;99888.84;5051874;28;20048;-73
2022/02/04 14:36:45;;;;;;;1.58;0.63;;;;;;;10.75;57.61;99880.66;5071662;28;20075;-73
2022/02/04 14:50:20;;;;;;;1.88;0.57;;;;;;;11.44;54.26;99860.00;5033396;28;20041;-72
2022/02/04 15:00:45;;;;;;;3.08;1.10;;;;;;;9.81;58.84;99837.25;5069760;28;20118;-73
2022/02/04 15:05:42;;;;;;;2.30;1.10;;;;;;;9.41;61.40;99832.53;5070430;28;20120;-73
2022/02/04 15:08:12;;;;;;;3.38;1.33;;;;;;;9.35;62.77;99831.72;5071432;28;20412;-73
2022/02/04 15:10:39;;;;;;;3.80;1.40;;;;;;;9.32;62.16;99827.34;5068539;28;20400;-73
2022/02/04 15:13:11;;;;;;;2.10;0.85;;;;;;;9.19;61.71;99824.00;5070826;28;20091;-73
2022/02/04 15:15:36;;;;;;;3.80;0.85;;;;;;;9.05;62.73;99832.97;5088821;28;20039;-73
2022/02/04 15:18:01;;;;;;;1.77;0.80;;;;;;;9.08;62.94;99833.78;5064102;28;20404;-73
2022/02/04 15:20:27;;;;;;;2.05;0.77;;;;;;;9.06;63.22;99825.03;5081886;28;20035;-76
2022/02/04 15:22:52;;;;;;;1.88;0.90;;;;;;;9.05;63.00;99823.31;5081678;28;20021;-75
2022/02/04 15:25:21;;;;;;;2.00;0.75;;;;;;;9.09;62.91;99810.97;5083048;28;20032;-75
2022/02/04 15:28:14;;;;;;;4.03;1.20;;;;;;;9.13;63.11;99805.66;5080379;28;20043;-76
2022/02/04 15:30:43;;;;;;;3.38;1.65;;;;;;;9.11;63.12;99812.69;5081167;28;20097;-76
2022/02/04 15:33:09;;;;;;;6.30;2.40;;;;;;;8.97;63.43;99817.25;5073477;28;20032;-76
2022/02/04 15:35:35;;;;;;;4.90;2.35;;;;;;;9.04;63.49;99796.97;5070792;28;20032;-74
2022/02/04 15:38:01;;;;;;;3.45;1.60;;;;;;;9.09;64.14;99798.69;5071087;28;20486;-75
2022/02/04 15:40:26;;;;;;;4.47;1.90;;;;;;;9.08;63.57;99799.56;5071095;28;20037;-76
2022/02/04 15:42:57;;;;;;;3.30;0.98;;;;;;;9.04;63.77;99804.88;5070435;28;20085;-75
2022/02/04 15:50:29;;;;;;;4.45;1.40;;;;;;;8.97;63.75;99810.22;5070985;28;20093;-74
2022/02/04 15:53:19;;;;;;;1.80;0.90;;;;;;;8.98;63.39;99806.69;5049545;28;20046;-73
2022/02/04 15:56:28;;;;;;;3.13;1.20;;;;;;;8.97;63.67;99802.31;5062849;28;20424;-74
2022/02/04 16:03:53;;;;;;;2.42;0.90;;;;;;;8.88;63.36;99801.53;5052837;28;20036;-73
2022/02/04 16:06:21;;;;;;;2.17;0.85;;;;;;;8.91;63.34;99804.19;5070545;28;20123;-73
2022/02/04 16:08:49;;;;;;;2.55;0.93;;;;;;;8.92;64.37;99801.50;5070950;28;20032;-73
2022/02/04 16:14:16;;;;;;;2.90;0.82;;;;;;;8.84;64.78;99781.44;5068267;28;20048;-73
2022/02/04 16:16:56;;;;;;;2.22;0.85;;;;;;;8.79;64.97;99781.47;5049653;28;20051;-74
2022/02/04 16:24:44;;;;;;;3.15;1.02;;;;;;;8.67;65.64;99773.72;5070411;28;20094;-76
2022/02/04 16:29:53;;;;;;;2.58;1.10;;;;;;;8.59;64.60;99781.69;5065169;28;20040;-75
2022/02/04 16:32:19;;;;;;;2.40;1.10;;;;;;;8.55;64.41;99779.97;5070798;28;20752;-76
2022/02/04 16:34:52;;;;;;;2.33;1.15;;;;;;;8.61;64.64;99777.28;5052470;28;20550;-75
2022/02/04 16:37:26;;;;;;;2.75;1.40;;;;;;;8.66;64.04;99782.50;5070444;28;20043;-76
2022/02/04 16:39:51;;;;;;;3.42;1.10;;;;;;;8.71;64.07;99771.03;5052348;28;20037;-75
2022/02/04 16:42:17;;;;;;;2.22;1.02;;;;;;;8.72;64.26;99767.53;5052580;28;20093;-76
2022/02/04 16:44:43;;;;;;;1.85;0.88;;;;;;;8.67;64.00;99748.31;5069662;28;20443;-76
2022/02/04 16:47:09;;;;;;;3.22;1.20;;;;;;;8.68;64.46;99736.88;5070087;28;20040;-75
2022/02/04 16:49:35;;;;;;;2.30;1.10;;;;;;;8.64;63.79;99735.16;5066689;28;20064;-74
2022/02/04 16:52:00;;;;;;;2.03;1.05;;;;;;;8.69;64.32;99757.03;5052226;28;20519;-76
2022/02/04 16:54:27;;;;;;;3.13;0.90;;;;;;;8.69;64.09;99746.50;5070186;28;20032;-75
2022/02/04 16:56:54;;;;;;;1.60;0.80;;;;;;;8.68;64.44;99760.56;5071877;28;20381;-75
2022/02/04 16:59:19;;;;;;;2.20;0.80;;;;;;;8.66;64.37;99746.53;5071449;28;20039;-76
2022/02/04 17:01:45;;;;;;;2.00;0.82;;;;;;;8.55;64.01;99754.53;5073552;28;20123;-75
2022/02/04 17:04:12;;;;;;;2.17;1.00;;;;;;;8.62;64.41;99751.84;5073499;28;20094;-76
2022/02/04 17:06:41;;;;;;;4.55;1.27;;;;;;;8.63;64.03;99748.34;5073589;28;20044;-75
2022/02/04 17:11:47;;;;;;;3.42;1.42;;;;;;;8.66;63.01;99740.41;5073678;28;20127;-76
2022/02/04 17:14:14;;;;;;;3.28;1.30;;;;;;;8.71;63.52;99750.00;5049137;28;20451;-75
2022/02/04 17:16:42;;;;;;;2.65;1.08;;;;;;;8.66;63.86;99738.66;5073070;28;20407;-75
2022/02/04 17:19:09;;;;;;;2.88;1.20;;;;;;;8.61;64.23;99740.47;5055624;28;20082;-75